This is the latest recevied weather packets stored in our database for station/object DL3MEB-6. If no packets are shown the sender has not sent any weather packets the latest 10 day(s).
| Time | Temp. | Humidity | Pressure | Rain* | Wind** | Luminosity | Snow |
|---|---|---|---|---|---|---|---|
| 1787651580 | 15.56° C | 87% | 1012.6 hPa | 0 mm | - | - | - |
| 1787650707 | 15.56° C | 83% | 1012.4 hPa | 0 mm | - | - | - |
| 1787650673 | 15.56° C | 83% | 1012.4 hPa | 0 mm | - | - | - |
| 1787649758 | 15.56° C | 81% | 1012.3 hPa | 0 mm | - | - | - |
| 1787648854 | 16.11° C | 79% | 1012.2 hPa | 0 mm | - | - | - |
| 1787647953 | 15.56° C | 78% | 1011.8 hPa | 0 mm | - | - | - |
| 1787647053 | 15.56° C | 79% | 1011.5 hPa | 0 mm | - | - | - |
| 1787646142 | 15.56° C | 81% | 1011.3 hPa | 0 mm | - | - | - |
| 1787645224 | 15° C | 82% | 1010.8 hPa | 0 mm | - | - | - |
| 1787644316 | 15° C | 84% | 1010.9 hPa | 0 mm | - | - | - |
| 1787643415 | 15° C | 84% | 1010.8 hPa | 0 mm | - | - | - |
| 1787641600 | 15° C | 81% | 1010.1 hPa | 0 mm | - | - | - |
| 1787640696 | 15° C | 81% | 1010 hPa | 0 mm | - | - | - |
| 1787639793 | 15° C | 80% | 1009.9 hPa | 0 mm | - | - | - |
| 1787602714 | 18.89° C | 65% | 1014 hPa | 0 mm | - | - | - |
| 1787601812 | 18.89° C | 59% | 1014.1 hPa | 0 mm | - | - | - |
| 1787600908 | 19.44° C | 57% | 1013.8 hPa | 0 mm | - | - | - |
| 1787599999 | 20° C | 49% | 1013.7 hPa | 0 mm | - | - | - |
| 1787599093 | 20° C | 49% | 1014 hPa | 0 mm | - | - | - |
| 1787598187 | 20° C | 48% | 1014.4 hPa | 0 mm | - | - | - |
| 1787597279 | 20.56° C | 47% | 1014.4 hPa | 0 mm | - | - | - |
| 1787596370 | 20.56° C | 47% | 1014.5 hPa | 0 mm | - | - | - |
| 1787595470 | 21.11° C | 46% | 1014.7 hPa | 0 mm | - | - | - |
| 1787594563 | 21.11° C | 46% | 1014.4 hPa | 0 mm | - | - | - |
| 1787593657 | 21.67° C | 45% | 1014.5 hPa | 0 mm | - | - | - |
* Rain latest hour (hover to see other rain measurements)
** Current wind speed in m/s (hover to see current wind gust speed)